Crawley, West Virginia
Current Conditions -  °F | °C
As of 5:55 PM on Thursday 18 Dec 2014 (Local Time) from KLWB Reporting Station
Overcast Overcast  
Wind Chill: 26°   Ceiling: 9000
Heat Index: 33°   Visibility: 10mi
Dew Point: 22°   Wind: 8mph
Humidity: 65%   Direction: 260°W
Pressure: 30.09"   Gusts: NA
Location:  37.93°N, 80.65°W
Report Text: KLWB 182255Z AUTO 26007KT 10SM SCT080 OVC090 01/M05 A3009 RMK AO2 T00071053
Loading
Personal Weather Stations






























Interactive Weather Map New forecast layout! Learn more

10-Day Weather Forecast

Advertisements
Track Severe Weather on mobile